sensor_id;sensor_type;location;lat;lon;timestamp;P1;durP1;ratioP1;P2;durP2;ratioP2
7473;SDS011;3778;42.572;23.426;2022-11-11T00:00:13;31.53;;;17.07;;
7473;SDS011;3778;42.572;23.426;2022-11-11T00:02:41;34.00;;;17.90;;
7473;SDS011;3778;42.572;23.426;2022-11-11T00:05:08;31.23;;;16.40;;
7473;SDS011;3778;42.572;23.426;2022-11-11T00:07:34;36.00;;;19.93;;
7473;SDS011;3778;42.572;23.426;2022-11-11T00:10:01;36.67;;;16.87;;
7473;SDS011;3778;42.572;23.426;2022-11-11T00:12:28;35.37;;;18.10;;
7473;SDS011;3778;42.572;23.426;2022-11-11T00:14:56;29.97;;;16.87;;
7473;SDS011;3778;42.572;23.426;2022-11-11T00:17:23;34.40;;;19.47;;
7473;SDS011;3778;42.572;23.426;2022-11-11T00:20:08;38.73;;;19.47;;
7473;SDS011;3778;42.572;23.426;2022-11-11T00:22:53;33.30;;;18.10;;
7473;SDS011;3778;42.572;23.426;2022-11-11T00:25:37;32.03;;;16.93;;
7473;SDS011;3778;42.572;23.426;2022-11-11T00:28:04;38.87;;;20.27;;
7473;SDS011;3778;42.572;23.426;2022-11-11T00:30:32;39.13;;;21.17;;
7473;SDS011;3778;42.572;23.426;2022-11-11T00:32:59;31.53;;;17.90;;
7473;SDS011;3778;42.572;23.426;2022-11-11T00:35:26;34.13;;;17.40;;
7473;SDS011;3778;42.572;23.426;2022-11-11T00:38:10;43.20;;;17.93;;
7473;SDS011;3778;42.572;23.426;2022-11-11T00:40:59;36.57;;;20.33;;
7473;SDS011;3778;42.572;23.426;2022-11-11T00:43:26;37.07;;;20.60;;
7473;SDS011;3778;42.572;23.426;2022-11-11T00:45:55;38.00;;;18.83;;
7473;SDS011;3778;42.572;23.426;2022-11-11T00:48:42;31.50;;;18.10;;
7473;SDS011;3778;42.572;23.426;2022-11-11T00:51:26;34.83;;;19.20;;
7473;SDS011;3778;42.572;23.426;2022-11-11T00:53:54;34.73;;;18.43;;
7473;SDS011;3778;42.572;23.426;2022-11-11T00:56:21;35.77;;;19.67;;
7473;SDS011;3778;42.572;23.426;2022-11-11T00:58:48;37.87;;;19.07;;
7473;SDS011;3778;42.572;23.426;2022-11-11T01:01:17;29.63;;;16.27;;
7473;SDS011;3778;42.572;23.426;2022-11-11T01:03:43;37.40;;;17.70;;
7473;SDS011;3778;42.572;23.426;2022-11-11T01:06:10;36.30;;;19.13;;
7473;SDS011;3778;42.572;23.426;2022-11-11T01:08:38;33.87;;;19.23;;
7473;SDS011;3778;42.572;23.426;2022-11-11T01:11:10;34.17;;;18.63;;
7473;SDS011;3778;42.572;23.426;2022-11-11T01:13:38;36.23;;;19.87;;
7473;SDS011;3778;42.572;23.426;2022-11-11T01:16:06;38.03;;;19.30;;
7473;SDS011;3778;42.572;23.426;2022-11-11T01:18:36;32.67;;;18.33;;
7473;SDS011;3778;42.572;23.426;2022-11-11T01:21:03;34.93;;;17.97;;
7473;SDS011;3778;42.572;23.426;2022-11-11T01:23:32;28.30;;;17.90;;
7473;SDS011;3778;42.572;23.426;2022-11-11T01:26:01;29.30;;;16.03;;
7473;SDS011;3778;42.572;23.426;2022-11-11T01:28:29;37.57;;;20.13;;
7473;SDS011;3778;42.572;23.426;2022-11-11T01:31:00;34.37;;;17.90;;
7473;SDS011;3778;42.572;23.426;2022-11-11T01:33:28;38.30;;;18.47;;
7473;SDS011;3778;42.572;23.426;2022-11-11T01:36:00;35.40;;;18.77;;
7473;SDS011;3778;42.572;23.426;2022-11-11T01:38:28;31.87;;;18.20;;
7473;SDS011;3778;42.572;23.426;2022-11-11T01:40:55;37.07;;;17.77;;
7473;SDS011;3778;42.572;23.426;2022-11-11T01:43:22;35.07;;;17.90;;
7473;SDS011;3778;42.572;23.426;2022-11-11T01:45:54;30.23;;;17.10;;
7473;SDS011;3778;42.572;23.426;2022-11-11T01:48:28;37.53;;;17.90;;
7473;SDS011;3778;42.572;23.426;2022-11-11T01:51:20;34.87;;;19.17;;
7473;SDS011;3778;42.572;23.426;2022-11-11T01:53:53;36.93;;;20.17;;
7473;SDS011;3778;42.572;23.426;2022-11-11T01:56:24;32.70;;;17.47;;
7473;SDS011;3778;42.572;23.426;2022-11-11T01:58:51;31.53;;;17.63;;
7473;SDS011;3778;42.572;23.426;2022-11-11T02:01:23;38.83;;;18.00;;
7473;SDS011;3778;42.572;23.426;2022-11-11T02:03:50;33.33;;;16.90;;
7473;SDS011;3778;42.572;23.426;2022-11-11T02:06:39;33.47;;;18.53;;
7473;SDS011;3778;42.572;23.426;2022-11-11T02:09:06;31.40;;;18.23;;
7473;SDS011;3778;42.572;23.426;2022-11-11T02:11:33;34.40;;;17.40;;
7473;SDS011;3778;42.572;23.426;2022-11-11T02:14:19;32.13;;;17.77;;
7473;SDS011;3778;42.572;23.426;2022-11-11T02:17:01;33.17;;;18.37;;
7473;SDS011;3778;42.572;23.426;2022-11-11T02:19:31;33.10;;;17.20;;
7473;SDS011;3778;42.572;23.426;2022-11-11T02:22:10;33.50;;;17.83;;
7473;SDS011;3778;42.572;23.426;2022-11-11T02:24:41;39.43;;;18.03;;
7473;SDS011;3778;42.572;23.426;2022-11-11T02:27:08;36.60;;;19.47;;
7473;SDS011;3778;42.572;23.426;2022-11-11T02:29:37;33.10;;;18.77;;
7473;SDS011;3778;42.572;23.426;2022-11-11T02:32:05;34.23;;;17.83;;
7473;SDS011;3778;42.572;23.426;2022-11-11T02:34:32;30.43;;;16.60;;
7473;SDS011;3778;42.572;23.426;2022-11-11T02:37:00;33.70;;;17.53;;
7473;SDS011;3778;42.572;23.426;2022-11-11T02:39:30;35.93;;;19.10;;
7473;SDS011;3778;42.572;23.426;2022-11-11T02:42:01;34.07;;;18.17;;
7473;SDS011;3778;42.572;23.426;2022-11-11T02:44:34;32.87;;;18.87;;
7473;SDS011;3778;42.572;23.426;2022-11-11T02:47:01;30.53;;;17.10;;
7473;SDS011;3778;42.572;23.426;2022-11-11T02:49:28;30.27;;;16.60;;
7473;SDS011;3778;42.572;23.426;2022-11-11T02:51:55;33.27;;;17.63;;
7473;SDS011;3778;42.572;23.426;2022-11-11T02:54:21;36.90;;;19.40;;
7473;SDS011;3778;42.572;23.426;2022-11-11T02:56:48;36.53;;;19.77;;
7473;SDS011;3778;42.572;23.426;2022-11-11T02:59:35;34.50;;;18.73;;
7473;SDS011;3778;42.572;23.426;2022-11-11T03:02:03;47.73;;;19.53;;
7473;SDS011;3778;42.572;23.426;2022-11-11T03:04:31;39.43;;;19.47;;
7473;SDS011;3778;42.572;23.426;2022-11-11T03:06:58;41.30;;;21.07;;
7473;SDS011;3778;42.572;23.426;2022-11-11T03:09:24;37.67;;;20.57;;
7473;SDS011;3778;42.572;23.426;2022-11-11T03:11:51;41.30;;;19.90;;
7473;SDS011;3778;42.572;23.426;2022-11-11T03:14:18;48.83;;;23.27;;
7473;SDS011;3778;42.572;23.426;2022-11-11T03:16:46;39.00;;;20.40;;
7473;SDS011;3778;42.572;23.426;2022-11-11T03:19:30;31.73;;;17.97;;
7473;SDS011;3778;42.572;23.426;2022-11-11T03:21:57;39.90;;;20.50;;
7473;SDS011;3778;42.572;23.426;2022-11-11T03:24:23;39.90;;;20.27;;
7473;SDS011;3778;42.572;23.426;2022-11-11T03:27:10;36.03;;;20.30;;
7473;SDS011;3778;42.572;23.426;2022-11-11T03:29:38;34.77;;;18.97;;
7473;SDS011;3778;42.572;23.426;2022-11-11T03:32:06;35.00;;;18.83;;
7473;SDS011;3778;42.572;23.426;2022-11-11T03:34:33;34.87;;;19.17;;
7473;SDS011;3778;42.572;23.426;2022-11-11T03:37:02;38.77;;;19.03;;
7473;SDS011;3778;42.572;23.426;2022-11-11T03:39:47;41.10;;;19.00;;
7473;SDS011;3778;42.572;23.426;2022-11-11T03:42:13;41.47;;;20.70;;
7473;SDS011;3778;42.572;23.426;2022-11-11T03:44:40;38.67;;;20.80;;
7473;SDS011;3778;42.572;23.426;2022-11-11T03:47:08;39.07;;;18.63;;
7473;SDS011;3778;42.572;23.426;2022-11-11T03:49:35;34.20;;;19.43;;
7473;SDS011;3778;42.572;23.426;2022-11-11T03:52:02;39.23;;;19.23;;
7473;SDS011;3778;42.572;23.426;2022-11-11T03:54:29;34.30;;;18.63;;
7473;SDS011;3778;42.572;23.426;2022-11-11T03:56:56;35.37;;;17.60;;
7473;SDS011;3778;42.572;23.426;2022-11-11T03:59:43;34.47;;;17.00;;
7473;SDS011;3778;42.572;23.426;2022-11-11T04:02:12;36.47;;;19.67;;
7473;SDS011;3778;42.572;23.426;2022-11-11T04:04:56;36.07;;;17.20;;
7473;SDS011;3778;42.572;23.426;2022-11-11T04:07:41;35.93;;;19.90;;
7473;SDS011;3778;42.572;23.426;2022-11-11T04:10:25;35.87;;;17.13;;
7473;SDS011;3778;42.572;23.426;2022-11-11T04:12:54;34.83;;;18.77;;
7473;SDS011;3778;42.572;23.426;2022-11-11T04:15:40;41.17;;;21.07;;
7473;SDS011;3778;42.572;23.426;2022-11-11T04:18:26;37.60;;;19.43;;
7473;SDS011;3778;42.572;23.426;2022-11-11T04:21:07;36.10;;;19.77;;
7473;SDS011;3778;42.572;23.426;2022-11-11T04:23:51;39.57;;;18.90;;
7473;SDS011;3778;42.572;23.426;2022-11-11T04:26:18;37.57;;;20.27;;
7473;SDS011;3778;42.572;23.426;2022-11-11T04:28:43;35.73;;;20.00;;
7473;SDS011;3778;42.572;23.426;2022-11-11T04:31:27;38.73;;;18.27;;
7473;SDS011;3778;42.572;23.426;2022-11-11T04:33:55;34.77;;;20.23;;
7473;SDS011;3778;42.572;23.426;2022-11-11T04:36:21;39.00;;;19.67;;
7473;SDS011;3778;42.572;23.426;2022-11-11T04:38:48;34.93;;;18.73;;
7473;SDS011;3778;42.572;23.426;2022-11-11T04:41:32;33.30;;;18.37;;
7473;SDS011;3778;42.572;23.426;2022-11-11T04:43:59;32.87;;;18.37;;
7473;SDS011;3778;42.572;23.426;2022-11-11T04:46:43;33.50;;;17.77;;
7473;SDS011;3778;42.572;23.426;2022-11-11T04:49:11;40.30;;;18.57;;
7473;SDS011;3778;42.572;23.426;2022-11-11T04:51:37;32.03;;;17.30;;
7473;SDS011;3778;42.572;23.426;2022-11-11T04:54:22;33.93;;;19.17;;
7473;SDS011;3778;42.572;23.426;2022-11-11T04:56:48;32.13;;;17.27;;
7473;SDS011;3778;42.572;23.426;2022-11-11T04:59:15;35.07;;;17.23;;
7473;SDS011;3778;42.572;23.426;2022-11-11T05:01:41;36.20;;;18.13;;
7473;SDS011;3778;42.572;23.426;2022-11-11T05:04:38;34.33;;;18.47;;
7473;SDS011;3778;42.572;23.426;2022-11-11T05:07:05;30.97;;;17.40;;
7473;SDS011;3778;42.572;23.426;2022-11-11T05:09:49;34.80;;;17.80;;
7473;SDS011;3778;42.572;23.426;2022-11-11T05:12:16;32.47;;;17.83;;
7473;SDS011;3778;42.572;23.426;2022-11-11T05:14:43;30.37;;;17.60;;
7473;SDS011;3778;42.572;23.426;2022-11-11T05:17:27;32.33;;;16.47;;
7473;SDS011;3778;42.572;23.426;2022-11-11T05:20:12;34.33;;;19.10;;
7473;SDS011;3778;42.572;23.426;2022-11-11T05:22:56;31.00;;;17.93;;
7473;SDS011;3778;42.572;23.426;2022-11-11T05:25:23;33.00;;;16.80;;
7473;SDS011;3778;42.572;23.426;2022-11-11T05:27:54;32.00;;;17.67;;
7473;SDS011;3778;42.572;23.426;2022-11-11T05:30:22;28.53;;;16.80;;
7473;SDS011;3778;42.572;23.426;2022-11-11T05:32:50;29.33;;;17.43;;
7473;SDS011;3778;42.572;23.426;2022-11-11T05:35:21;33.10;;;17.97;;
7473;SDS011;3778;42.572;23.426;2022-11-11T05:37:48;35.97;;;18.70;;
7473;SDS011;3778;42.572;23.426;2022-11-11T05:40:35;30.30;;;17.33;;
7473;SDS011;3778;42.572;23.426;2022-11-11T05:43:01;26.17;;;14.87;;
7473;SDS011;3778;42.572;23.426;2022-11-11T05:45:28;32.83;;;17.33;;
7473;SDS011;3778;42.572;23.426;2022-11-11T05:47:59;30.07;;;17.40;;
7473;SDS011;3778;42.572;23.426;2022-11-11T05:50:28;30.77;;;15.93;;
7473;SDS011;3778;42.572;23.426;2022-11-11T05:52:54;30.87;;;17.13;;
7473;SDS011;3778;42.572;23.426;2022-11-11T05:55:21;29.97;;;16.97;;
7473;SDS011;3778;42.572;23.426;2022-11-11T05:57:48;34.50;;;17.27;;
7473;SDS011;3778;42.572;23.426;2022-11-11T06:00:15;27.47;;;16.73;;
7473;SDS011;3778;42.572;23.426;2022-11-11T06:02:43;31.60;;;16.03;;
7473;SDS011;3778;42.572;23.426;2022-11-11T06:05:10;31.57;;;16.70;;
7473;SDS011;3778;42.572;23.426;2022-11-11T06:07:38;30.13;;;16.60;;
7473;SDS011;3778;42.572;23.426;2022-11-11T06:10:06;30.30;;;16.70;;
7473;SDS011;3778;42.572;23.426;2022-11-11T06:12:52;28.93;;;17.27;;
7473;SDS011;3778;42.572;23.426;2022-11-11T06:15:29;34.93;;;17.47;;
7473;SDS011;3778;42.572;23.426;2022-11-11T06:17:57;32.63;;;17.67;;
7473;SDS011;3778;42.572;23.426;2022-11-11T06:20:24;32.80;;;17.20;;
7473;SDS011;3778;42.572;23.426;2022-11-11T06:22:53;32.40;;;17.77;;
7473;SDS011;3778;42.572;23.426;2022-11-11T06:25:23;33.63;;;18.33;;
7473;SDS011;3778;42.572;23.426;2022-11-11T06:28:08;37.83;;;20.37;;
7473;SDS011;3778;42.572;23.426;2022-11-11T06:30:35;33.30;;;18.73;;
7473;SDS011;3778;42.572;23.426;2022-11-11T06:33:02;34.97;;;19.13;;
7473;SDS011;3778;42.572;23.426;2022-11-11T06:35:31;30.67;;;17.63;;
7473;SDS011;3778;42.572;23.426;2022-11-11T06:38:00;34.63;;;18.60;;
7473;SDS011;3778;42.572;23.426;2022-11-11T06:40:27;31.90;;;18.23;;
7473;SDS011;3778;42.572;23.426;2022-11-11T06:42:54;29.77;;;17.53;;
7473;SDS011;3778;42.572;23.426;2022-11-11T06:45:21;31.93;;;17.87;;
7473;SDS011;3778;42.572;23.426;2022-11-11T06:47:48;28.10;;;17.10;;
7473;SDS011;3778;42.572;23.426;2022-11-11T06:50:15;35.47;;;18.80;;
7473;SDS011;3778;42.572;23.426;2022-11-11T06:52:42;28.83;;;17.50;;
7473;SDS011;3778;42.572;23.426;2022-11-11T06:55:10;36.67;;;19.17;;
7473;SDS011;3778;42.572;23.426;2022-11-11T06:57:37;30.53;;;17.73;;
7473;SDS011;3778;42.572;23.426;2022-11-11T07:00:05;32.40;;;19.40;;
7473;SDS011;3778;42.572;23.426;2022-11-11T07:02:32;33.07;;;18.87;;
7473;SDS011;3778;42.572;23.426;2022-11-11T07:04:59;31.23;;;16.93;;
7473;SDS011;3778;42.572;23.426;2022-11-11T07:07:26;30.73;;;17.90;;
7473;SDS011;3778;42.572;23.426;2022-11-11T07:09:53;40.30;;;21.83;;
7473;SDS011;3778;42.572;23.426;2022-11-11T07:12:22;33.80;;;17.93;;
7473;SDS011;3778;42.572;23.426;2022-11-11T07:14:49;30.67;;;18.60;;
7473;SDS011;3778;42.572;23.426;2022-11-11T07:17:16;31.40;;;17.47;;
7473;SDS011;3778;42.572;23.426;2022-11-11T07:19:43;30.90;;;17.50;;
7473;SDS011;3778;42.572;23.426;2022-11-11T07:22:09;28.47;;;16.73;;
7473;SDS011;3778;42.572;23.426;2022-11-11T07:24:36;29.87;;;17.23;;
7473;SDS011;3778;42.572;23.426;2022-11-11T07:27:03;32.07;;;17.10;;
7473;SDS011;3778;42.572;23.426;2022-11-11T07:29:31;30.23;;;16.47;;
7473;SDS011;3778;42.572;23.426;2022-11-11T07:31:58;33.13;;;18.87;;
7473;SDS011;3778;42.572;23.426;2022-11-11T07:34:24;38.90;;;22.10;;
7473;SDS011;3778;42.572;23.426;2022-11-11T07:36:52;41.57;;;22.10;;
7473;SDS011;3778;42.572;23.426;2022-11-11T07:39:19;41.97;;;23.07;;
7473;SDS011;3778;42.572;23.426;2022-11-11T07:41:46;38.30;;;21.63;;
7473;SDS011;3778;42.572;23.426;2022-11-11T07:44:13;40.53;;;23.27;;
7473;SDS011;3778;42.572;23.426;2022-11-11T07:46:41;39.13;;;21.93;;
7473;SDS011;3778;42.572;23.426;2022-11-11T07:49:07;43.37;;;23.47;;
7473;SDS011;3778;42.572;23.426;2022-11-11T07:51:34;39.60;;;21.37;;
7473;SDS011;3778;42.572;23.426;2022-11-11T07:54:02;32.33;;;18.43;;
7473;SDS011;3778;42.572;23.426;2022-11-11T07:56:29;32.47;;;18.07;;
7473;SDS011;3778;42.572;23.426;2022-11-11T07:58:56;37.77;;;18.90;;
7473;SDS011;3778;42.572;23.426;2022-11-11T08:01:22;29.50;;;15.97;;
7473;SDS011;3778;42.572;23.426;2022-11-11T08:03:51;28.17;;;15.83;;
7473;SDS011;3778;42.572;23.426;2022-11-11T08:06:17;33.97;;;18.07;;
7473;SDS011;3778;42.572;23.426;2022-11-11T08:08:45;27.70;;;14.43;;
7473;SDS011;3778;42.572;23.426;2022-11-11T08:11:13;25.53;;;13.50;;
7473;SDS011;3778;42.572;23.426;2022-11-11T08:13:41;26.67;;;14.60;;
7473;SDS011;3778;42.572;23.426;2022-11-11T08:16:08;26.53;;;15.73;;
7473;SDS011;3778;42.572;23.426;2022-11-11T08:18:36;30.20;;;15.10;;
7473;SDS011;3778;42.572;23.426;2022-11-11T08:21:04;28.17;;;15.53;;
7473;SDS011;3778;42.572;23.426;2022-11-11T08:23:32;27.57;;;15.50;;
7473;SDS011;3778;42.572;23.426;2022-11-11T08:25:59;29.87;;;16.07;;
7473;SDS011;3778;42.572;23.426;2022-11-11T08:28:27;25.60;;;16.30;;
7473;SDS011;3778;42.572;23.426;2022-11-11T08:30:56;25.53;;;13.90;;
7473;SDS011;3778;42.572;23.426;2022-11-11T08:33:24;24.07;;;14.43;;
7473;SDS011;3778;42.572;23.426;2022-11-11T08:35:51;24.87;;;15.43;;
7473;SDS011;3778;42.572;23.426;2022-11-11T08:38:20;28.57;;;14.03;;
7473;SDS011;3778;42.572;23.426;2022-11-11T08:40:47;29.97;;;14.13;;
7473;SDS011;3778;42.572;23.426;2022-11-11T08:43:14;22.90;;;12.73;;
7473;SDS011;3778;42.572;23.426;2022-11-11T08:45:41;27.17;;;14.40;;
7473;SDS011;3778;42.572;23.426;2022-11-11T08:48:08;24.90;;;14.43;;
7473;SDS011;3778;42.572;23.426;2022-11-11T08:50:35;21.40;;;13.13;;
7473;SDS011;3778;42.572;23.426;2022-11-11T08:53:02;22.47;;;13.03;;
7473;SDS011;3778;42.572;23.426;2022-11-11T08:55:31;27.57;;;15.07;;
7473;SDS011;3778;42.572;23.426;2022-11-11T08:57:59;23.60;;;11.97;;
7473;SDS011;3778;42.572;23.426;2022-11-11T09:00:27;17.87;;;10.77;;
7473;SDS011;3778;42.572;23.426;2022-11-11T09:02:54;19.47;;;11.40;;
7473;SDS011;3778;42.572;23.426;2022-11-11T09:05:20;25.43;;;14.53;;
7473;SDS011;3778;42.572;23.426;2022-11-11T09:07:47;25.40;;;12.10;;
7473;SDS011;3778;42.572;23.426;2022-11-11T09:10:14;22.83;;;12.60;;
7473;SDS011;3778;42.572;23.426;2022-11-11T09:12:42;26.10;;;15.23;;
7473;SDS011;3778;42.572;23.426;2022-11-11T09:15:09;19.43;;;12.50;;
7473;SDS011;3778;42.572;23.426;2022-11-11T09:17:36;21.93;;;12.80;;
7473;SDS011;3778;42.572;23.426;2022-11-11T09:20:03;22.57;;;12.13;;
7473;SDS011;3778;42.572;23.426;2022-11-11T09:22:31;19.67;;;12.47;;
7473;SDS011;3778;42.572;23.426;2022-11-11T09:24:57;17.10;;;10.77;;
7473;SDS011;3778;42.572;23.426;2022-11-11T09:27:24;16.77;;;10.30;;
7473;SDS011;3778;42.572;23.426;2022-11-11T09:29:52;17.20;;;9.40;;
7473;SDS011;3778;42.572;23.426;2022-11-11T09:32:19;16.93;;;10.40;;
7473;SDS011;3778;42.572;23.426;2022-11-11T09:34:46;17.97;;;11.53;;
7473;SDS011;3778;42.572;23.426;2022-11-11T09:37:12;16.27;;;10.77;;
7473;SDS011;3778;42.572;23.426;2022-11-11T09:39:39;16.17;;;9.57;;
7473;SDS011;3778;42.572;23.426;2022-11-11T09:42:09;17.43;;;10.17;;
7473;SDS011;3778;42.572;23.426;2022-11-11T09:47:34;16.67;;;9.83;;
7473;SDS011;3778;42.572;23.426;2022-11-11T09:50:08;16.83;;;9.50;;
7473;SDS011;3778;42.572;23.426;2022-11-11T09:52:39;15.97;;;10.33;;
7473;SDS011;3778;42.572;23.426;2022-11-11T09:55:12;16.57;;;9.63;;
7473;SDS011;3778;42.572;23.426;2022-11-11T09:57:44;16.73;;;9.47;;
7473;SDS011;3778;42.572;23.426;2022-11-11T10:00:19;16.77;;;7.70;;
7473;SDS011;3778;42.572;23.426;2022-11-11T10:02:49;13.27;;;8.73;;
7473;SDS011;3778;42.572;23.426;2022-11-11T10:05:19;19.37;;;10.70;;
7473;SDS011;3778;42.572;23.426;2022-11-11T10:07:51;13.67;;;8.87;;
7473;SDS011;3778;42.572;23.426;2022-11-11T10:10:23;18.47;;;11.17;;
7473;SDS011;3778;42.572;23.426;2022-11-11T10:12:57;15.40;;;8.80;;
7473;SDS011;3778;42.572;23.426;2022-11-11T10:15:26;12.87;;;9.03;;
7473;SDS011;3778;42.572;23.426;2022-11-11T10:18:03;16.83;;;9.03;;
7473;SDS011;3778;42.572;23.426;2022-11-11T10:20:41;14.10;;;8.77;;
7473;SDS011;3778;42.572;23.426;2022-11-11T10:23:13;15.50;;;8.50;;
7473;SDS011;3778;42.572;23.426;2022-11-11T10:25:42;19.87;;;8.30;;
7473;SDS011;3778;42.572;23.426;2022-11-11T10:28:16;15.33;;;9.33;;
7473;SDS011;3778;42.572;23.426;2022-11-11T10:30:46;11.87;;;8.87;;
7473;SDS011;3778;42.572;23.426;2022-11-11T10:33:16;17.63;;;10.53;;
7473;SDS011;3778;42.572;23.426;2022-11-11T10:35:46;15.50;;;9.60;;
7473;SDS011;3778;42.572;23.426;2022-11-11T10:38:21;13.07;;;9.20;;
7473;SDS011;3778;42.572;23.426;2022-11-11T10:40:58;15.40;;;8.83;;
7473;SDS011;3778;42.572;23.426;2022-11-11T10:43:36;10.23;;;6.63;;
7473;SDS011;3778;42.572;23.426;2022-11-11T10:46:06;13.60;;;9.33;;
7473;SDS011;3778;42.572;23.426;2022-11-11T10:48:39;9.37;;;6.97;;
7473;SDS011;3778;42.572;23.426;2022-11-11T10:51:14;10.13;;;7.30;;
7473;SDS011;3778;42.572;23.426;2022-11-11T10:53:43;16.80;;;8.27;;
7473;SDS011;3778;42.572;23.426;2022-11-11T10:56:20;12.50;;;8.43;;
7473;SDS011;3778;42.572;23.426;2022-11-11T10:58:53;14.23;;;8.27;;
7473;SDS011;3778;42.572;23.426;2022-11-11T11:01:28;16.10;;;9.60;;
7473;SDS011;3778;42.572;23.426;2022-11-11T11:04:00;11.53;;;8.40;;
7473;SDS011;3778;42.572;23.426;2022-11-11T11:06:32;13.37;;;7.57;;
7473;SDS011;3778;42.572;23.426;2022-11-11T11:09:05;11.63;;;7.80;;
7473;SDS011;3778;42.572;23.426;2022-11-11T11:11:38;12.60;;;7.83;;
7473;SDS011;3778;42.572;23.426;2022-11-11T11:14:09;12.00;;;7.30;;
7473;SDS011;3778;42.572;23.426;2022-11-11T11:16:45;11.33;;;7.90;;
7473;SDS011;3778;42.572;23.426;2022-11-11T11:19:16;13.37;;;8.20;;
7473;SDS011;3778;42.572;23.426;2022-11-11T11:21:48;11.10;;;7.23;;
7473;SDS011;3778;42.572;23.426;2022-11-11T11:24:20;13.23;;;7.47;;
7473;SDS011;3778;42.572;23.426;2022-11-11T11:26:50;12.57;;;6.93;;
7473;SDS011;3778;42.572;23.426;2022-11-11T11:29:28;9.93;;;6.43;;
7473;SDS011;3778;42.572;23.426;2022-11-11T11:32:11;11.17;;;8.13;;
7473;SDS011;3778;42.572;23.426;2022-11-11T11:34:44;12.40;;;7.70;;
7473;SDS011;3778;42.572;23.426;2022-11-11T11:37:12;12.07;;;7.43;;
7473;SDS011;3778;42.572;23.426;2022-11-11T11:39:39;12.47;;;7.87;;
7473;SDS011;3778;42.572;23.426;2022-11-11T11:42:06;10.83;;;7.17;;
7473;SDS011;3778;42.572;23.426;2022-11-11T11:44:35;10.77;;;6.77;;
7473;SDS011;3778;42.572;23.426;2022-11-11T11:47:15;11.23;;;5.73;;
7473;SDS011;3778;42.572;23.426;2022-11-11T11:50:00;8.47;;;6.13;;
7473;SDS011;3778;42.572;23.426;2022-11-11T11:52:42;10.63;;;6.03;;
7473;SDS011;3778;42.572;23.426;2022-11-11T11:55:21;10.37;;;6.77;;
7473;SDS011;3778;42.572;23.426;2022-11-11T11:57:52;14.90;;;7.50;;
7473;SDS011;3778;42.572;23.426;2022-11-11T12:00:30;8.57;;;5.83;;
7473;SDS011;3778;42.572;23.426;2022-11-11T12:03:14;10.60;;;6.20;;
7473;SDS011;3778;42.572;23.426;2022-11-11T12:05:54;9.70;;;6.70;;
7473;SDS011;3778;42.572;23.426;2022-11-11T12:08:31;11.33;;;6.50;;
7473;SDS011;3778;42.572;23.426;2022-11-11T12:11:11;10.13;;;6.10;;
7473;SDS011;3778;42.572;23.426;2022-11-11T12:13:45;10.73;;;6.70;;
7473;SDS011;3778;42.572;23.426;2022-11-11T12:16:24;7.77;;;5.73;;
7473;SDS011;3778;42.572;23.426;2022-11-11T12:19:03;11.90;;;6.77;;
7473;SDS011;3778;42.572;23.426;2022-11-11T12:21:45;8.80;;;6.33;;
7473;SDS011;3778;42.572;23.426;2022-11-11T12:24:27;12.93;;;6.80;;
7473;SDS011;3778;42.572;23.426;2022-11-11T12:27:06;8.73;;;6.27;;
7473;SDS011;3778;42.572;23.426;2022-11-11T12:29:44;16.23;;;5.87;;
7473;SDS011;3778;42.572;23.426;2022-11-11T12:32:33;8.53;;;6.03;;
7473;SDS011;3778;42.572;23.426;2022-11-11T12:35:18;8.37;;;5.30;;
7473;SDS011;3778;42.572;23.426;2022-11-11T12:37:55;8.77;;;6.20;;
7473;SDS011;3778;42.572;23.426;2022-11-11T12:40:34;12.13;;;5.83;;
7473;SDS011;3778;42.572;23.426;2022-11-11T12:43:15;8.13;;;5.60;;
7473;SDS011;3778;42.572;23.426;2022-11-11T12:45:48;12.50;;;6.40;;
7473;SDS011;3778;42.572;23.426;2022-11-11T12:48:27;10.87;;;7.10;;
7473;SDS011;3778;42.572;23.426;2022-11-11T12:51:07;10.03;;;7.00;;
7473;SDS011;3778;42.572;23.426;2022-11-11T12:53:44;9.80;;;6.43;;
7473;SDS011;3778;42.572;23.426;2022-11-11T12:56:22;15.13;;;6.37;;
7473;SDS011;3778;42.572;23.426;2022-11-11T12:58:55;10.80;;;6.20;;
7473;SDS011;3778;42.572;23.426;2022-11-11T13:01:28;12.27;;;6.77;;
7473;SDS011;3778;42.572;23.426;2022-11-11T13:04:18;12.03;;;6.90;;
7473;SDS011;3778;42.572;23.426;2022-11-11T13:07:04;11.07;;;6.57;;
7473;SDS011;3778;42.572;23.426;2022-11-11T13:09:50;10.50;;;5.83;;
7473;SDS011;3778;42.572;23.426;2022-11-11T13:12:30;8.27;;;6.10;;
7473;SDS011;3778;42.572;23.426;2022-11-11T13:15:10;10.97;;;6.50;;
7473;SDS011;3778;42.572;23.426;2022-11-11T13:17:47;14.93;;;7.40;;
7473;SDS011;3778;42.572;23.426;2022-11-11T13:20:17;8.93;;;6.10;;
7473;SDS011;3778;42.572;23.426;2022-11-11T13:22:55;8.17;;;5.83;;
7473;SDS011;3778;42.572;23.426;2022-11-11T13:25:22;9.87;;;6.53;;
7473;SDS011;3778;42.572;23.426;2022-11-11T13:27:52;7.77;;;6.27;;
7473;SDS011;3778;42.572;23.426;2022-11-11T13:33:23;11.93;;;7.00;;
7473;SDS011;3778;42.572;23.426;2022-11-11T13:35:53;12.50;;;7.13;;
7473;SDS011;3778;42.572;23.426;2022-11-11T13:38:26;10.87;;;6.20;;
7473;SDS011;3778;42.572;23.426;2022-11-11T13:40:56;8.53;;;5.63;;
7473;SDS011;3778;42.572;23.426;2022-11-11T13:43:27;9.90;;;6.10;;
7473;SDS011;3778;42.572;23.426;2022-11-11T13:45:57;8.43;;;6.13;;
7473;SDS011;3778;42.572;23.426;2022-11-11T13:48:27;10.63;;;5.80;;
7473;SDS011;3778;42.572;23.426;2022-11-11T13:51:10;8.53;;;5.97;;
7473;SDS011;3778;42.572;23.426;2022-11-11T13:53:40;10.13;;;6.30;;
7473;SDS011;3778;42.572;23.426;2022-11-11T13:56:07;9.67;;;6.10;;
7473;SDS011;3778;42.572;23.426;2022-11-11T13:58:37;9.57;;;6.30;;
7473;SDS011;3778;42.572;23.426;2022-11-11T14:01:07;9.13;;;6.20;;
7473;SDS011;3778;42.572;23.426;2022-11-11T14:06:28;14.00;;;7.83;;
7473;SDS011;3778;42.572;23.426;2022-11-11T14:12:20;11.70;;;7.60;;
7473;SDS011;3778;42.572;23.426;2022-11-11T14:14:58;10.77;;;6.53;;
7473;SDS011;3778;42.572;23.426;2022-11-11T14:17:25;13.90;;;7.40;;
7473;SDS011;3778;42.572;23.426;2022-11-11T14:19:55;13.53;;;7.90;;
7473;SDS011;3778;42.572;23.426;2022-11-11T14:22:31;13.77;;;7.77;;
7473;SDS011;3778;42.572;23.426;2022-11-11T14:25:10;38.57;;;17.40;;
7473;SDS011;3778;42.572;23.426;2022-11-11T14:27:47;25.43;;;12.53;;
7473;SDS011;3778;42.572;23.426;2022-11-11T14:30:36;19.70;;;10.53;;
7473;SDS011;3778;42.572;23.426;2022-11-11T14:33:06;24.20;;;10.70;;
7473;SDS011;3778;42.572;23.426;2022-11-11T14:35:43;23.87;;;12.13;;
7473;SDS011;3778;42.572;23.426;2022-11-11T14:38:21;17.70;;;9.97;;
7473;SDS011;3778;42.572;23.426;2022-11-11T14:47:30;20.17;;;11.40;;
7473;SDS011;3778;42.572;23.426;2022-11-11T14:49:58;25.97;;;13.33;;
7473;SDS011;3778;42.572;23.426;2022-11-11T14:52:29;22.70;;;11.40;;
7473;SDS011;3778;42.572;23.426;2022-11-11T14:55:03;18.70;;;10.27;;
7473;SDS011;3778;42.572;23.426;2022-11-11T14:57:37;17.20;;;9.47;;
7473;SDS011;3778;42.572;23.426;2022-11-11T15:00:11;17.10;;;8.00;;
7473;SDS011;3778;42.572;23.426;2022-11-11T15:02:41;15.33;;;7.93;;
7473;SDS011;3778;42.572;23.426;2022-11-11T15:05:15;13.43;;;7.27;;
7473;SDS011;3778;42.572;23.426;2022-11-11T15:07:53;17.10;;;7.70;;
7473;SDS011;3778;42.572;23.426;2022-11-11T15:10:32;14.07;;;7.83;;
7473;SDS011;3778;42.572;23.426;2022-11-11T15:13:21;13.53;;;8.10;;
7473;SDS011;3778;42.572;23.426;2022-11-11T15:16:06;15.67;;;7.30;;
7473;SDS011;3778;42.572;23.426;2022-11-11T15:18:50;14.37;;;7.73;;
7473;SDS011;3778;42.572;23.426;2022-11-11T15:21:31;11.77;;;7.30;;
7473;SDS011;3778;42.572;23.426;2022-11-11T15:24:10;15.17;;;8.30;;
7473;SDS011;3778;42.572;23.426;2022-11-11T15:26:49;15.30;;;8.17;;